메인 페이지
METAR-TAF:

METAR-TAF

공항 :

김해국제공항

부산광역, 대한민국

위도: 35-11N, 경도: 128-56E, 고도: 4m

현재 날씨관측

예보는 29분 전, 17:00시(UTC)에 발표되었습니다.
5kt
온도 11°C
습도 82%
기압 1015 hPa
시정 10km 이상
1500m 미만 상공 구름 및 적란운 없음

METAR: RKPK 171700Z 35005KT CAVOK 11/08 Q1015 NOSIG

시각: 02:29 (17:29 UTC)

예보

예보는 6 시간 29분 전, 11:00시(UTC)에 발표되었습니다.
예보 대상 시간: 17일 12시부터 18일 18시까지 (UTC)
북북서6kt
시정 10km 이상
고도 3000ft 상공 구름 조금
전환 중
18일 02시부터 18일 03시까지 (UTC)
북북동8kt
전환 중
18일 05시부터 18일 06시까지 (UTC)
고도 3000ft 상공 구름 많음

TAF: RKPK 171100Z 1712/1818 33006KT 9999 FEW030 TN10/1721Z TX18/1806Z BECMG 1802/1803 03008KT BECMG 1805/1806 BKN030

4,000개 이상의 공항 관측 자료 및 예보 (METAR 및 TAF 보고).

지도상에서 검색 가능한 기상관측소가 노란 점과 빨간 점으로 표시되어 있습니다.

기상관측소 명을 보려면 표시 위로 마우스를 이동하세요.

날씨 관측과 예보를 보려면 클릭하세요.

지도 변경 : 확대하려면 엑스 표시가 있는 녹색 버튼, 축소하려면 빼기 표시가 있는 녹색 버튼, 다음 페이지의 지도를 보려면 녹색 화살표를 클릭하세요.


METAR-TAF: